sensor_id;sensor_type;location;lat;lon;timestamp;P1;durP1;ratioP1;P2;durP2;ratioP2
22034;SDS011;11181;51.002;4.356;2023-08-01T00:00:46;3.00;;;2.23;;
22034;SDS011;11181;51.002;4.356;2023-08-01T00:03:12;4.47;;;2.27;;
22034;SDS011;11181;51.002;4.356;2023-08-01T00:05:39;3.70;;;2.13;;
22034;SDS011;11181;51.002;4.356;2023-08-01T00:08:09;6.50;;;2.33;;
22034;SDS011;11181;51.002;4.356;2023-08-01T00:10:37;3.37;;;2.40;;
22034;SDS011;11181;51.002;4.356;2023-08-01T00:13:06;7.17;;;2.60;;
22034;SDS011;11181;51.002;4.356;2023-08-01T00:15:33;5.17;;;3.00;;
22034;SDS011;11181;51.002;4.356;2023-08-01T00:18:00;3.50;;;2.27;;
22034;SDS011;11181;51.002;4.356;2023-08-01T00:20:27;5.43;;;3.47;;
22034;SDS011;11181;51.002;4.356;2023-08-01T00:22:54;4.40;;;2.60;;
22034;SDS011;11181;51.002;4.356;2023-08-01T00:25:21;6.00;;;3.07;;
22034;SDS011;11181;51.002;4.356;2023-08-01T00:27:48;5.00;;;2.63;;
22034;SDS011;11181;51.002;4.356;2023-08-01T00:30:17;4.97;;;3.40;;
22034;SDS011;11181;51.002;4.356;2023-08-01T00:32:44;6.60;;;3.10;;
22034;SDS011;11181;51.002;4.356;2023-08-01T00:35:11;3.87;;;2.87;;
22034;SDS011;11181;51.002;4.356;2023-08-01T00:37:38;7.20;;;3.93;;
22034;SDS011;11181;51.002;4.356;2023-08-01T00:40:05;5.33;;;3.37;;
22034;SDS011;11181;51.002;4.356;2023-08-01T00:42:35;6.13;;;3.40;;
22034;SDS011;11181;51.002;4.356;2023-08-01T00:45:02;5.87;;;3.87;;
22034;SDS011;11181;51.002;4.356;2023-08-01T00:47:31;6.23;;;3.80;;
22034;SDS011;11181;51.002;4.356;2023-08-01T00:49:58;7.77;;;3.50;;
22034;SDS011;11181;51.002;4.356;2023-08-01T00:52:25;4.27;;;3.57;;
22034;SDS011;11181;51.002;4.356;2023-08-01T00:54:53;7.23;;;4.07;;
22034;SDS011;11181;51.002;4.356;2023-08-01T00:57:21;5.20;;;3.60;;
22034;SDS011;11181;51.002;4.356;2023-08-01T00:59:48;7.50;;;3.70;;
22034;SDS011;11181;51.002;4.356;2023-08-01T01:02:15;8.10;;;3.83;;
22034;SDS011;11181;51.002;4.356;2023-08-01T01:04:43;5.83;;;3.13;;
22034;SDS011;11181;51.002;4.356;2023-08-01T01:07:10;11.67;;;4.33;;
22034;SDS011;11181;51.002;4.356;2023-08-01T01:09:38;7.10;;;4.33;;
22034;SDS011;11181;51.002;4.356;2023-08-01T01:12:05;4.60;;;3.93;;
22034;SDS011;11181;51.002;4.356;2023-08-01T01:14:32;7.07;;;3.60;;
22034;SDS011;11181;51.002;4.356;2023-08-01T01:16:59;7.33;;;3.83;;
22034;SDS011;11181;51.002;4.356;2023-08-01T01:19:26;6.43;;;3.60;;
22034;SDS011;11181;51.002;4.356;2023-08-01T01:21:54;8.37;;;4.60;;
22034;SDS011;11181;51.002;4.356;2023-08-01T01:24:22;8.43;;;4.30;;
22034;SDS011;11181;51.002;4.356;2023-08-01T01:26:49;11.17;;;4.70;;
22034;SDS011;11181;51.002;4.356;2023-08-01T01:29:17;8.80;;;4.97;;
22034;SDS011;11181;51.002;4.356;2023-08-01T01:31:45;7.17;;;4.57;;
22034;SDS011;11181;51.002;4.356;2023-08-01T01:34:14;11.87;;;6.07;;
22034;SDS011;11181;51.002;4.356;2023-08-01T01:36:41;12.67;;;4.77;;
22034;SDS011;11181;51.002;4.356;2023-08-01T01:39:09;5.53;;;4.43;;
22034;SDS011;11181;51.002;4.356;2023-08-01T01:41:36;9.50;;;4.50;;
22034;SDS011;11181;51.002;4.356;2023-08-01T01:44:03;8.73;;;4.90;;
22034;SDS011;11181;51.002;4.356;2023-08-01T01:46:30;8.03;;;4.37;;
22034;SDS011;11181;51.002;4.356;2023-08-01T01:48:57;7.43;;;4.93;;
22034;SDS011;11181;51.002;4.356;2023-08-01T01:51:25;7.23;;;5.43;;
22034;SDS011;11181;51.002;4.356;2023-08-01T01:53:52;7.47;;;5.17;;
22034;SDS011;11181;51.002;4.356;2023-08-01T01:56:20;9.77;;;5.20;;
22034;SDS011;11181;51.002;4.356;2023-08-01T01:58:47;7.47;;;5.20;;
22034;SDS011;11181;51.002;4.356;2023-08-01T02:01:14;6.80;;;4.73;;
22034;SDS011;11181;51.002;4.356;2023-08-01T02:03:41;10.40;;;5.07;;
22034;SDS011;11181;51.002;4.356;2023-08-01T02:06:08;10.40;;;5.17;;
22034;SDS011;11181;51.002;4.356;2023-08-01T02:08:34;8.53;;;5.13;;
22034;SDS011;11181;51.002;4.356;2023-08-01T02:11:01;11.30;;;4.97;;
22034;SDS011;11181;51.002;4.356;2023-08-01T02:13:31;9.07;;;5.00;;
22034;SDS011;11181;51.002;4.356;2023-08-01T02:15:58;9.03;;;6.03;;
22034;SDS011;11181;51.002;4.356;2023-08-01T02:18:25;12.80;;;5.97;;
22034;SDS011;11181;51.002;4.356;2023-08-01T02:20:52;11.47;;;6.13;;
22034;SDS011;11181;51.002;4.356;2023-08-01T02:23:19;14.20;;;7.00;;
22034;SDS011;11181;51.002;4.356;2023-08-01T02:25:46;11.27;;;6.77;;
22034;SDS011;11181;51.002;4.356;2023-08-01T02:28:12;11.03;;;7.37;;
22034;SDS011;11181;51.002;4.356;2023-08-01T02:30:41;11.57;;;7.23;;
22034;SDS011;11181;51.002;4.356;2023-08-01T02:33:08;10.40;;;7.47;;
22034;SDS011;11181;51.002;4.356;2023-08-01T02:35:35;12.77;;;8.53;;
22034;SDS011;11181;51.002;4.356;2023-08-01T02:38:02;15.97;;;8.23;;
22034;SDS011;11181;51.002;4.356;2023-08-01T02:40:29;15.73;;;8.37;;
22034;SDS011;11181;51.002;4.356;2023-08-01T02:42:56;14.23;;;8.37;;
22034;SDS011;11181;51.002;4.356;2023-08-01T02:45:23;12.33;;;8.93;;
22034;SDS011;11181;51.002;4.356;2023-08-01T02:47:51;12.87;;;8.70;;
22034;SDS011;11181;51.002;4.356;2023-08-01T02:50:18;10.77;;;7.80;;
22034;SDS011;11181;51.002;4.356;2023-08-01T02:52:45;14.40;;;7.63;;
22034;SDS011;11181;51.002;4.356;2023-08-01T02:55:12;11.87;;;8.47;;
22034;SDS011;11181;51.002;4.356;2023-08-01T02:57:38;15.33;;;9.07;;
22034;SDS011;11181;51.002;4.356;2023-08-01T03:00:06;13.77;;;8.67;;
22034;SDS011;11181;51.002;4.356;2023-08-01T03:02:36;14.50;;;7.90;;
22034;SDS011;11181;51.002;4.356;2023-08-01T03:05:06;12.50;;;8.37;;
22034;SDS011;11181;51.002;4.356;2023-08-01T03:07:33;16.67;;;8.67;;
22034;SDS011;11181;51.002;4.356;2023-08-01T03:10:00;16.57;;;8.30;;
22034;SDS011;11181;51.002;4.356;2023-08-01T03:12:27;19.43;;;8.83;;
22034;SDS011;11181;51.002;4.356;2023-08-01T03:14:54;13.60;;;7.80;;
22034;SDS011;11181;51.002;4.356;2023-08-01T03:17:21;14.07;;;9.33;;
22034;SDS011;11181;51.002;4.356;2023-08-01T03:19:48;12.37;;;8.63;;
22034;SDS011;11181;51.002;4.356;2023-08-01T03:22:16;14.80;;;9.07;;
22034;SDS011;11181;51.002;4.356;2023-08-01T03:24:43;19.67;;;8.83;;
22034;SDS011;11181;51.002;4.356;2023-08-01T03:27:10;13.37;;;8.97;;
22034;SDS011;11181;51.002;4.356;2023-08-01T03:29:37;14.13;;;8.43;;
22034;SDS011;11181;51.002;4.356;2023-08-01T03:32:04;15.43;;;9.20;;
22034;SDS011;11181;51.002;4.356;2023-08-01T03:34:31;19.30;;;10.33;;
22034;SDS011;11181;51.002;4.356;2023-08-01T03:36:58;15.73;;;9.00;;
22034;SDS011;11181;51.002;4.356;2023-08-01T03:39:26;15.13;;;9.20;;
22034;SDS011;11181;51.002;4.356;2023-08-01T03:41:53;13.50;;;8.37;;
22034;SDS011;11181;51.002;4.356;2023-08-01T03:44:20;16.17;;;9.43;;
22034;SDS011;11181;51.002;4.356;2023-08-01T03:46:48;14.03;;;8.83;;
22034;SDS011;11181;51.002;4.356;2023-08-01T03:49:15;13.73;;;7.80;;
22034;SDS011;11181;51.002;4.356;2023-08-01T03:51:43;12.60;;;8.53;;
22034;SDS011;11181;51.002;4.356;2023-08-01T03:54:10;16.30;;;9.93;;
22034;SDS011;11181;51.002;4.356;2023-08-01T03:56:38;17.97;;;8.63;;
22034;SDS011;11181;51.002;4.356;2023-08-01T03:59:08;15.40;;;7.80;;
22034;SDS011;11181;51.002;4.356;2023-08-01T04:01:35;20.17;;;9.70;;
22034;SDS011;11181;51.002;4.356;2023-08-01T04:04:01;16.17;;;9.10;;
22034;SDS011;11181;51.002;4.356;2023-08-01T04:06:28;13.27;;;8.07;;
22034;SDS011;11181;51.002;4.356;2023-08-01T04:08:55;17.03;;;9.83;;
22034;SDS011;11181;51.002;4.356;2023-08-01T04:11:22;19.47;;;8.50;;
22034;SDS011;11181;51.002;4.356;2023-08-01T04:13:50;16.90;;;7.70;;
22034;SDS011;11181;51.002;4.356;2023-08-01T04:16:17;17.07;;;9.33;;
22034;SDS011;11181;51.002;4.356;2023-08-01T04:18:44;15.13;;;8.33;;
22034;SDS011;11181;51.002;4.356;2023-08-01T04:21:12;14.20;;;8.03;;
22034;SDS011;11181;51.002;4.356;2023-08-01T04:23:40;14.90;;;8.20;;
22034;SDS011;11181;51.002;4.356;2023-08-01T04:26:07;14.97;;;8.40;;
22034;SDS011;11181;51.002;4.356;2023-08-01T04:28:34;13.37;;;8.00;;
22034;SDS011;11181;51.002;4.356;2023-08-01T04:31:02;13.43;;;7.73;;
22034;SDS011;11181;51.002;4.356;2023-08-01T04:33:29;15.87;;;8.13;;
22034;SDS011;11181;51.002;4.356;2023-08-01T04:35:56;12.63;;;7.60;;
22034;SDS011;11181;51.002;4.356;2023-08-01T04:38:23;12.90;;;7.63;;
22034;SDS011;11181;51.002;4.356;2023-08-01T04:40:50;13.80;;;7.93;;
22034;SDS011;11181;51.002;4.356;2023-08-01T04:43:16;17.57;;;8.63;;
22034;SDS011;11181;51.002;4.356;2023-08-01T04:45:43;17.00;;;7.90;;
22034;SDS011;11181;51.002;4.356;2023-08-01T04:48:12;13.10;;;7.33;;
22034;SDS011;11181;51.002;4.356;2023-08-01T04:50:39;12.93;;;8.20;;
22034;SDS011;11181;51.002;4.356;2023-08-01T04:53:06;14.23;;;7.50;;
22034;SDS011;11181;51.002;4.356;2023-08-01T04:55:33;13.80;;;8.03;;
22034;SDS011;11181;51.002;4.356;2023-08-01T04:57:59;17.67;;;8.07;;
22034;SDS011;11181;51.002;4.356;2023-08-01T05:00:26;15.40;;;8.30;;
22034;SDS011;11181;51.002;4.356;2023-08-01T05:02:53;28.20;;;8.67;;
22034;SDS011;11181;51.002;4.356;2023-08-01T05:05:21;12.00;;;8.10;;
22034;SDS011;11181;51.002;4.356;2023-08-01T05:07:48;15.13;;;7.70;;
22034;SDS011;11181;51.002;4.356;2023-08-01T05:10:15;11.53;;;7.43;;
22034;SDS011;11181;51.002;4.356;2023-08-01T05:12:42;14.90;;;6.90;;
22034;SDS011;11181;51.002;4.356;2023-08-01T05:15:09;15.87;;;7.40;;
22034;SDS011;11181;51.002;4.356;2023-08-01T05:17:37;15.90;;;7.53;;
22034;SDS011;11181;51.002;4.356;2023-08-01T05:20:05;9.57;;;6.40;;
22034;SDS011;11181;51.002;4.356;2023-08-01T05:22:34;14.47;;;7.70;;
22034;SDS011;11181;51.002;4.356;2023-08-01T05:25:01;15.70;;;8.33;;
22034;SDS011;11181;51.002;4.356;2023-08-01T05:27:30;13.40;;;7.17;;
22034;SDS011;11181;51.002;4.356;2023-08-01T05:29:56;15.27;;;8.10;;
22034;SDS011;11181;51.002;4.356;2023-08-01T05:32:23;16.27;;;7.40;;
22034;SDS011;11181;51.002;4.356;2023-08-01T05:34:50;13.97;;;7.43;;
22034;SDS011;11181;51.002;4.356;2023-08-01T05:37:17;10.27;;;6.20;;
22034;SDS011;11181;51.002;4.356;2023-08-01T05:39:45;14.77;;;6.97;;
22034;SDS011;11181;51.002;4.356;2023-08-01T05:42:12;13.13;;;7.53;;
22034;SDS011;11181;51.002;4.356;2023-08-01T05:44:39;12.53;;;6.87;;
22034;SDS011;11181;51.002;4.356;2023-08-01T05:47:06;14.30;;;7.03;;
22034;SDS011;11181;51.002;4.356;2023-08-01T05:49:33;13.40;;;7.30;;
22034;SDS011;11181;51.002;4.356;2023-08-01T05:51:59;12.27;;;6.27;;
22034;SDS011;11181;51.002;4.356;2023-08-01T05:54:26;13.10;;;6.50;;
22034;SDS011;11181;51.002;4.356;2023-08-01T05:56:54;10.83;;;7.00;;
22034;SDS011;11181;51.002;4.356;2023-08-01T05:59:21;13.00;;;7.87;;
22034;SDS011;11181;51.002;4.356;2023-08-01T06:01:48;15.13;;;7.40;;
22034;SDS011;11181;51.002;4.356;2023-08-01T06:04:15;12.70;;;6.87;;
22034;SDS011;11181;51.002;4.356;2023-08-01T06:06:42;10.27;;;6.60;;
22034;SDS011;11181;51.002;4.356;2023-08-01T06:09:09;11.93;;;7.57;;
22034;SDS011;11181;51.002;4.356;2023-08-01T06:11:36;16.50;;;8.13;;
22034;SDS011;11181;51.002;4.356;2023-08-01T06:14:04;13.37;;;7.00;;
22034;SDS011;11181;51.002;4.356;2023-08-01T06:16:31;18.87;;;8.07;;
22034;SDS011;11181;51.002;4.356;2023-08-01T06:18:58;12.07;;;7.00;;
22034;SDS011;11181;51.002;4.356;2023-08-01T06:21:25;14.37;;;6.63;;
22034;SDS011;11181;51.002;4.356;2023-08-01T06:23:52;11.37;;;7.13;;
22034;SDS011;11181;51.002;4.356;2023-08-01T06:26:19;15.17;;;6.07;;
22034;SDS011;11181;51.002;4.356;2023-08-01T06:28:46;17.23;;;7.60;;
22034;SDS011;11181;51.002;4.356;2023-08-01T06:31:14;17.93;;;7.27;;
22034;SDS011;11181;51.002;4.356;2023-08-01T06:33:41;17.87;;;7.50;;
22034;SDS011;11181;51.002;4.356;2023-08-01T06:36:08;9.77;;;7.37;;
22034;SDS011;11181;51.002;4.356;2023-08-01T06:38:35;12.37;;;6.83;;
22034;SDS011;11181;51.002;4.356;2023-08-01T06:41:02;13.10;;;7.10;;
22034;SDS011;11181;51.002;4.356;2023-08-01T06:43:29;12.77;;;6.90;;
22034;SDS011;11181;51.002;4.356;2023-08-01T06:45:56;11.07;;;6.73;;
22034;SDS011;11181;51.002;4.356;2023-08-01T06:48:24;11.90;;;6.27;;
22034;SDS011;11181;51.002;4.356;2023-08-01T06:50:51;10.63;;;8.23;;
22034;SDS011;11181;51.002;4.356;2023-08-01T06:53:18;10.73;;;5.70;;
22034;SDS011;11181;51.002;4.356;2023-08-01T06:55:45;9.87;;;6.40;;
22034;SDS011;11181;51.002;4.356;2023-08-01T06:58:11;12.30;;;7.00;;
22034;SDS011;11181;51.002;4.356;2023-08-01T07:00:38;10.80;;;6.10;;
22034;SDS011;11181;51.002;4.356;2023-08-01T07:03:05;19.17;;;6.37;;
22034;SDS011;11181;51.002;4.356;2023-08-01T07:05:34;12.43;;;5.63;;
22034;SDS011;11181;51.002;4.356;2023-08-01T07:08:00;12.90;;;5.97;;
22034;SDS011;11181;51.002;4.356;2023-08-01T07:10:27;13.07;;;5.57;;
22034;SDS011;11181;51.002;4.356;2023-08-01T07:12:54;13.57;;;6.13;;
22034;SDS011;11181;51.002;4.356;2023-08-01T07:15:21;9.53;;;5.33;;
22034;SDS011;11181;51.002;4.356;2023-08-01T07:17:48;11.57;;;5.90;;
22034;SDS011;11181;51.002;4.356;2023-08-01T07:20:15;9.07;;;4.77;;
22034;SDS011;11181;51.002;4.356;2023-08-01T07:22:44;9.03;;;5.90;;
22034;SDS011;11181;51.002;4.356;2023-08-01T07:25:10;8.40;;;5.37;;
22034;SDS011;11181;51.002;4.356;2023-08-01T07:27:37;9.87;;;5.07;;
22034;SDS011;11181;51.002;4.356;2023-08-01T07:30:05;9.87;;;5.13;;
22034;SDS011;11181;51.002;4.356;2023-08-01T07:32:32;14.87;;;6.03;;
22034;SDS011;11181;51.002;4.356;2023-08-01T07:34:59;9.90;;;5.13;;
22034;SDS011;11181;51.002;4.356;2023-08-01T07:37:26;11.87;;;4.50;;
22034;SDS011;11181;51.002;4.356;2023-08-01T07:39:55;8.97;;;5.50;;
22034;SDS011;11181;51.002;4.356;2023-08-01T07:42:22;6.83;;;4.83;;
22034;SDS011;11181;51.002;4.356;2023-08-01T07:44:49;8.27;;;4.90;;
22034;SDS011;11181;51.002;4.356;2023-08-01T07:47:16;13.43;;;5.03;;
22034;SDS011;11181;51.002;4.356;2023-08-01T07:49:43;10.43;;;5.27;;
22034;SDS011;11181;51.002;4.356;2023-08-01T07:52:10;8.90;;;4.93;;
22034;SDS011;11181;51.002;4.356;2023-08-01T07:54:37;8.83;;;4.77;;
22034;SDS011;11181;51.002;4.356;2023-08-01T07:57:06;9.40;;;4.73;;
22034;SDS011;11181;51.002;4.356;2023-08-01T07:59:33;7.80;;;5.50;;
22034;SDS011;11181;51.002;4.356;2023-08-01T08:01:59;9.57;;;5.73;;
22034;SDS011;11181;51.002;4.356;2023-08-01T08:04:27;9.37;;;5.27;;
22034;SDS011;11181;51.002;4.356;2023-08-01T08:06:53;13.10;;;4.97;;
22034;SDS011;11181;51.002;4.356;2023-08-01T08:09:24;8.93;;;5.47;;
22034;SDS011;11181;51.002;4.356;2023-08-01T08:11:51;11.90;;;5.50;;
22034;SDS011;11181;51.002;4.356;2023-08-01T08:14:20;12.20;;;5.73;;
22034;SDS011;11181;51.002;4.356;2023-08-01T08:16:48;5.53;;;4.87;;
22034;SDS011;11181;51.002;4.356;2023-08-01T08:19:15;11.50;;;4.90;;
22034;SDS011;11181;51.002;4.356;2023-08-01T08:21:41;7.80;;;5.10;;
22034;SDS011;11181;51.002;4.356;2023-08-01T08:24:08;8.43;;;4.50;;
22034;SDS011;11181;51.002;4.356;2023-08-01T08:26:36;9.00;;;4.70;;
22034;SDS011;11181;51.002;4.356;2023-08-01T08:29:04;11.83;;;5.03;;
22034;SDS011;11181;51.002;4.356;2023-08-01T08:31:33;9.10;;;4.63;;
22034;SDS011;11181;51.002;4.356;2023-08-01T08:34:00;6.50;;;4.50;;
22034;SDS011;11181;51.002;4.356;2023-08-01T08:36:27;8.63;;;4.30;;
22034;SDS011;11181;51.002;4.356;2023-08-01T08:38:54;6.53;;;4.50;;
22034;SDS011;11181;51.002;4.356;2023-08-01T08:41:21;11.70;;;4.57;;
22034;SDS011;11181;51.002;4.356;2023-08-01T08:43:52;5.63;;;3.77;;
22034;SDS011;11181;51.002;4.356;2023-08-01T08:46:22;9.83;;;4.23;;
22034;SDS011;11181;51.002;4.356;2023-08-01T08:48:55;7.57;;;4.47;;
22034;SDS011;11181;51.002;4.356;2023-08-01T08:51:23;6.57;;;4.27;;
22034;SDS011;11181;51.002;4.356;2023-08-01T08:53:53;9.17;;;5.20;;
22034;SDS011;11181;51.002;4.356;2023-08-01T08:56:20;9.87;;;4.37;;
22034;SDS011;11181;51.002;4.356;2023-08-01T08:58:48;9.67;;;4.67;;
22034;SDS011;11181;51.002;4.356;2023-08-01T09:01:15;13.50;;;4.07;;
22034;SDS011;11181;51.002;4.356;2023-08-01T09:03:43;9.00;;;4.40;;
22034;SDS011;11181;51.002;4.356;2023-08-01T09:06:14;7.37;;;4.00;;
22034;SDS011;11181;51.002;4.356;2023-08-01T09:08:44;7.87;;;3.80;;
22034;SDS011;11181;51.002;4.356;2023-08-01T09:11:16;5.27;;;4.60;;
22034;SDS011;11181;51.002;4.356;2023-08-01T09:13:43;5.50;;;3.73;;
22034;SDS011;11181;51.002;4.356;2023-08-01T09:16:10;11.33;;;4.83;;
22034;SDS011;11181;51.002;4.356;2023-08-01T09:18:46;6.60;;;4.03;;
22034;SDS011;11181;51.002;4.356;2023-08-01T09:21:15;8.73;;;3.93;;
22034;SDS011;11181;51.002;4.356;2023-08-01T09:23:44;5.57;;;3.90;;
22034;SDS011;11181;51.002;4.356;2023-08-01T09:26:14;8.00;;;4.63;;
22034;SDS011;11181;51.002;4.356;2023-08-01T09:28:41;5.63;;;3.80;;
22034;SDS011;11181;51.002;4.356;2023-08-01T09:31:09;7.20;;;4.67;;
22034;SDS011;11181;51.002;4.356;2023-08-01T09:33:37;7.20;;;4.50;;
22034;SDS011;11181;51.002;4.356;2023-08-01T09:36:06;7.77;;;4.67;;
22034;SDS011;11181;51.002;4.356;2023-08-01T09:38:35;8.40;;;4.97;;
22034;SDS011;11181;51.002;4.356;2023-08-01T09:41:02;4.80;;;3.97;;
22034;SDS011;11181;51.002;4.356;2023-08-01T09:43:33;8.63;;;4.03;;
22034;SDS011;11181;51.002;4.356;2023-08-01T09:46:01;8.00;;;4.00;;
22034;SDS011;11181;51.002;4.356;2023-08-01T09:48:29;8.13;;;4.80;;
22034;SDS011;11181;51.002;4.356;2023-08-01T09:51:06;5.90;;;3.37;;
22034;SDS011;11181;51.002;4.356;2023-08-01T09:53:35;6.20;;;3.60;;
22034;SDS011;11181;51.002;4.356;2023-08-01T09:56:12;6.57;;;4.10;;
22034;SDS011;11181;51.002;4.356;2023-08-01T09:58:53;6.73;;;4.13;;
22034;SDS011;11181;51.002;4.356;2023-08-01T10:01:21;7.40;;;4.47;;
22034;SDS011;11181;51.002;4.356;2023-08-01T10:03:49;6.37;;;4.23;;
22034;SDS011;11181;51.002;4.356;2023-08-01T10:06:18;4.37;;;3.40;;
22034;SDS011;11181;51.002;4.356;2023-08-01T10:08:46;6.65;;;4.05;;
22034;SDS011;11181;51.002;4.356;2023-08-01T10:11:14;5.05;;;3.13;;
22034;SDS011;11181;51.002;4.356;2023-08-01T10:13:42;5.97;;;3.60;;
22034;SDS011;11181;51.002;4.356;2023-08-01T10:16:11;4.90;;;3.28;;
22034;SDS011;11181;51.002;4.356;2023-08-01T10:18:39;5.50;;;2.83;;
22034;SDS011;11181;51.002;4.356;2023-08-01T10:21:06;7.07;;;2.80;;
22034;SDS011;11181;51.002;4.356;2023-08-01T10:23:35;3.55;;;2.80;;
22034;SDS011;11181;51.002;4.356;2023-08-01T10:26:03;5.00;;;3.72;;
22034;SDS011;11181;51.002;4.356;2023-08-01T10:28:32;8.90;;;3.58;;
22034;SDS011;11181;51.002;4.356;2023-08-01T10:31:08;7.15;;;3.85;;
22034;SDS011;11181;51.002;4.356;2023-08-01T10:33:37;4.30;;;3.43;;
22034;SDS011;11181;51.002;4.356;2023-08-01T10:36:14;7.60;;;4.20;;
22034;SDS011;11181;51.002;4.356;2023-08-01T10:38:46;7.63;;;3.87;;
22034;SDS011;11181;51.002;4.356;2023-08-01T10:41:18;6.10;;;4.13;;
22034;SDS011;11181;51.002;4.356;2023-08-01T10:43:46;5.97;;;3.77;;
22034;SDS011;11181;51.002;4.356;2023-08-01T10:46:13;4.20;;;3.33;;
22034;SDS011;11181;51.002;4.356;2023-08-01T10:48:48;6.90;;;3.83;;
22034;SDS011;11181;51.002;4.356;2023-08-01T10:51:16;6.73;;;3.80;;
22034;SDS011;11181;51.002;4.356;2023-08-01T10:53:43;9.33;;;3.40;;
22034;SDS011;11181;51.002;4.356;2023-08-01T10:56:17;5.93;;;3.70;;
22034;SDS011;11181;51.002;4.356;2023-08-01T10:58:45;5.57;;;3.67;;
22034;SDS011;11181;51.002;4.356;2023-08-01T11:01:12;8.13;;;4.20;;
22034;SDS011;11181;51.002;4.356;2023-08-01T11:03:39;6.00;;;3.53;;
22034;SDS011;11181;51.002;4.356;2023-08-01T11:06:08;9.23;;;4.50;;
22034;SDS011;11181;51.002;4.356;2023-08-01T11:08:35;8.33;;;4.40;;
22034;SDS011;11181;51.002;4.356;2023-08-01T11:11:04;5.23;;;3.20;;
22034;SDS011;11181;51.002;4.356;2023-08-01T11:13:33;4.77;;;3.60;;
22034;SDS011;11181;51.002;4.356;2023-08-01T11:16:01;4.27;;;2.97;;
22034;SDS011;11181;51.002;4.356;2023-08-01T11:18:29;4.07;;;2.57;;
22034;SDS011;11181;51.002;4.356;2023-08-01T11:20:56;8.30;;;2.87;;
22034;SDS011;11181;51.002;4.356;2023-08-01T11:23:28;5.97;;;3.27;;
22034;SDS011;11181;51.002;4.356;2023-08-01T11:25:56;7.40;;;3.27;;
22034;SDS011;11181;51.002;4.356;2023-08-01T11:28:22;7.83;;;3.30;;
22034;SDS011;11181;51.002;4.356;2023-08-01T11:30:50;6.63;;;2.93;;
22034;SDS011;11181;51.002;4.356;2023-08-01T11:33:17;4.00;;;2.53;;
22034;SDS011;11181;51.002;4.356;2023-08-01T11:35:45;4.33;;;2.37;;
22034;SDS011;11181;51.002;4.356;2023-08-01T11:38:12;6.23;;;3.17;;
22034;SDS011;11181;51.002;4.356;2023-08-01T11:40:40;6.03;;;2.70;;
22034;SDS011;11181;51.002;4.356;2023-08-01T11:43:08;10.70;;;3.57;;
22034;SDS011;11181;51.002;4.356;2023-08-01T11:45:35;4.50;;;2.67;;
22034;SDS011;11181;51.002;4.356;2023-08-01T11:48:02;4.30;;;2.63;;
22034;SDS011;11181;51.002;4.356;2023-08-01T11:50:29;3.97;;;2.60;;
22034;SDS011;11181;51.002;4.356;2023-08-01T11:52:56;3.10;;;1.93;;
22034;SDS011;11181;51.002;4.356;2023-08-01T11:55:25;5.83;;;2.30;;
22034;SDS011;11181;51.002;4.356;2023-08-01T11:57:55;2.63;;;1.57;;
22034;SDS011;11181;51.002;4.356;2023-08-01T12:00:24;4.18;;;2.42;;
22034;SDS011;11181;51.002;4.356;2023-08-01T12:03:02;4.80;;;1.87;;
22034;SDS011;11181;51.002;4.356;2023-08-01T12:05:30;5.18;;;2.25;;
22034;SDS011;11181;51.002;4.356;2023-08-01T12:08:07;4.65;;;1.83;;
22034;SDS011;11181;51.002;4.356;2023-08-01T12:10:36;6.43;;;1.90;;
22034;SDS011;11181;51.002;4.356;2023-08-01T12:13:05;4.90;;;1.67;;
22034;SDS011;11181;51.002;4.356;2023-08-01T12:15:32;8.02;;;2.25;;
22034;SDS011;11181;51.002;4.356;2023-08-01T12:17:59;5.78;;;2.17;;
22034;SDS011;11181;51.002;4.356;2023-08-01T12:20:26;4.88;;;1.95;;
22034;SDS011;11181;51.002;4.356;2023-08-01T12:22:53;3.88;;;1.63;;
22034;SDS011;11181;51.002;4.356;2023-08-01T12:25:19;3.25;;;1.90;;
22034;SDS011;11181;51.002;4.356;2023-08-01T12:27:46;4.82;;;1.42;;
22034;SDS011;11181;51.002;4.356;2023-08-01T12:30:14;3.38;;;1.67;;
22034;SDS011;11181;51.002;4.356;2023-08-01T12:32:41;2.22;;;1.15;;
22034;SDS011;11181;51.002;4.356;2023-08-01T12:35:09;5.78;;;1.98;;
22034;SDS011;11181;51.002;4.356;2023-08-01T12:37:36;2.42;;;1.25;;
22034;SDS011;11181;51.002;4.356;2023-08-01T12:40:04;2.47;;;1.38;;
22034;SDS011;11181;51.002;4.356;2023-08-01T12:42:32;3.72;;;1.10;;
22034;SDS011;11181;51.002;4.356;2023-08-01T12:44:59;2.47;;;1.00;;
22034;SDS011;11181;51.002;4.356;2023-08-01T12:47:27;2.28;;;1.25;;
22034;SDS011;11181;51.002;4.356;2023-08-01T12:49:55;2.47;;;1.05;;
22034;SDS011;11181;51.002;4.356;2023-08-01T12:52:22;1.88;;;0.82;;
22034;SDS011;11181;51.002;4.356;2023-08-01T12:54:50;4.28;;;1.40;;
22034;SDS011;11181;51.002;4.356;2023-08-01T12:57:17;3.50;;;1.08;;
22034;SDS011;11181;51.002;4.356;2023-08-01T12:59:44;5.65;;;1.33;;
22034;SDS011;11181;51.002;4.356;2023-08-01T13:02:11;3.60;;;1.23;;
22034;SDS011;11181;51.002;4.356;2023-08-01T13:04:40;2.60;;;1.13;;
22034;SDS011;11181;51.002;4.356;2023-08-01T13:07:07;6.53;;;1.48;;
22034;SDS011;11181;51.002;4.356;2023-08-01T13:09:34;1.95;;;1.00;;
22034;SDS011;11181;51.002;4.356;2023-08-01T13:12:01;4.30;;;1.45;;
22034;SDS011;11181;51.002;4.356;2023-08-01T13:14:28;4.38;;;1.42;;
22034;SDS011;11181;51.002;4.356;2023-08-01T13:16:55;2.47;;;1.63;;
22034;SDS011;11181;51.002;4.356;2023-08-01T13:19:23;6.38;;;1.60;;
22034;SDS011;11181;51.002;4.356;2023-08-01T13:21:51;4.13;;;1.63;;
22034;SDS011;11181;51.002;4.356;2023-08-01T13:24:18;3.80;;;1.27;;
22034;SDS011;11181;51.002;4.356;2023-08-01T13:26:45;6.22;;;1.90;;
22034;SDS011;11181;51.002;4.356;2023-08-01T13:29:12;2.13;;;1.20;;
22034;SDS011;11181;51.002;4.356;2023-08-01T13:31:39;4.67;;;1.57;;
22034;SDS011;11181;51.002;4.356;2023-08-01T13:34:07;5.07;;;1.60;;
22034;SDS011;11181;51.002;4.356;2023-08-01T13:36:34;4.10;;;1.50;;
22034;SDS011;11181;51.002;4.356;2023-08-01T13:39:02;4.90;;;1.65;;
22034;SDS011;11181;51.002;4.356;2023-08-01T13:41:29;4.03;;;1.60;;
22034;SDS011;11181;51.002;4.356;2023-08-01T13:43:57;2.97;;;1.40;;
22034;SDS011;11181;51.002;4.356;2023-08-01T13:46:24;3.60;;;1.50;;
22034;SDS011;11181;51.002;4.356;2023-08-01T13:48:52;2.93;;;1.63;;
22034;SDS011;11181;51.002;4.356;2023-08-01T13:51:19;2.60;;;1.00;;
22034;SDS011;11181;51.002;4.356;2023-08-01T13:53:46;3.00;;;1.60;;
22034;SDS011;11181;51.002;4.356;2023-08-01T13:56:14;3.60;;;1.37;;
22034;SDS011;11181;51.002;4.356;2023-08-01T13:58:41;4.80;;;1.60;;
22034;SDS011;11181;51.002;4.356;2023-08-01T14:01:08;5.27;;;1.67;;
22034;SDS011;11181;51.002;4.356;2023-08-01T14:03:36;3.90;;;1.47;;
22034;SDS011;11181;51.002;4.356;2023-08-01T14:06:05;3.73;;;2.10;;
22034;SDS011;11181;51.002;4.356;2023-08-01T14:08:32;4.90;;;1.50;;
22034;SDS011;11181;51.002;4.356;2023-08-01T14:11:00;5.83;;;1.70;;
22034;SDS011;11181;51.002;4.356;2023-08-01T14:13:30;5.13;;;1.63;;
22034;SDS011;11181;51.002;4.356;2023-08-01T14:15:57;3.37;;;1.50;;
22034;SDS011;11181;51.002;4.356;2023-08-01T14:18:24;3.63;;;1.70;;
22034;SDS011;11181;51.002;4.356;2023-08-01T14:20:51;8.13;;;1.50;;
22034;SDS011;11181;51.002;4.356;2023-08-01T14:23:18;5.50;;;1.97;;
22034;SDS011;11181;51.002;4.356;2023-08-01T14:25:45;2.10;;;1.33;;
22034;SDS011;11181;51.002;4.356;2023-08-01T14:28:12;4.00;;;1.37;;
22034;SDS011;11181;51.002;4.356;2023-08-01T14:30:41;2.87;;;1.50;;
22034;SDS011;11181;51.002;4.356;2023-08-01T14:33:08;3.40;;;1.30;;
22034;SDS011;11181;51.002;4.356;2023-08-01T14:35:35;4.07;;;1.63;;
22034;SDS011;11181;51.002;4.356;2023-08-01T14:38:03;4.43;;;1.33;;
22034;SDS011;11181;51.002;4.356;2023-08-01T14:40:30;4.83;;;1.70;;
22034;SDS011;11181;51.002;4.356;2023-08-01T14:42:59;5.77;;;1.90;;
22034;SDS011;11181;51.002;4.356;2023-08-01T14:45:26;7.83;;;2.33;;